createdAt,value
2019-01-29T00:02:08.318Z,97973.55
2019-01-29T00:04:35.084Z,97969.70
2019-01-29T00:07:01.928Z,97981.65
2019-01-29T00:09:28.754Z,97975.68
2019-01-29T00:11:55.973Z,97974.84
2019-01-29T00:14:22.737Z,97975.94
2019-01-29T00:16:49.454Z,97980.41
2019-01-29T00:19:16.194Z,97980.61
2019-01-29T00:21:42.934Z,97984.17
2019-01-29T00:24:10.580Z,97995.39
2019-01-29T00:26:37.336Z,97988.33
2019-01-29T00:29:04.095Z,98001.17
2019-01-29T00:31:30.874Z,97991.64
2019-01-29T00:33:57.981Z,97995.75
2019-01-29T00:36:24.695Z,97997.45
2019-01-29T00:38:51.453Z,97996.00
2019-01-29T00:41:18.158Z,97990.58
2019-01-29T00:43:45.338Z,98004.63
2019-01-29T00:46:12.065Z,98005.78
2019-01-29T00:48:38.837Z,98004.86
2019-01-29T00:51:05.556Z,98004.28
2019-01-29T00:53:33.834Z,98015.05
2019-01-29T00:56:00.540Z,98007.53
2019-01-29T00:58:27.280Z,98010.59
2019-01-29T01:00:53.984Z,98012.70
2019-01-29T01:03:20.691Z,98015.50
2019-01-29T01:05:47.422Z,98017.45
2019-01-29T01:08:14.130Z,98037.06
2019-01-29T01:10:41.046Z,98030.20
2019-01-29T01:13:07.764Z,98030.63
2019-01-29T01:15:34.505Z,98030.73
2019-01-29T01:18:01.266Z,98035.41
2019-01-29T01:20:30.077Z,98037.32
2019-01-29T01:22:57.142Z,98036.38
2019-01-29T01:25:23.918Z,98048.11
2019-01-29T01:27:50.751Z,98055.16
2019-01-29T01:30:17.903Z,98062.02
2019-01-29T01:32:44.645Z,98060.47
2019-01-29T01:35:11.383Z,98068.70
2019-01-29T01:37:38.149Z,98073.78
2019-01-29T01:40:08.084Z,98067.77
2019-01-29T01:42:34.921Z,98083.09
2019-01-29T01:45:02.237Z,98072.86
2019-01-29T01:47:28.945Z,98070.61
2019-01-29T01:49:55.829Z,98063.34
2019-01-29T01:52:22.562Z,98067.96
2019-01-29T01:54:49.301Z,98062.70
2019-01-29T01:57:16.059Z,98070.52
2019-01-29T01:59:44.589Z,98064.97
2019-01-29T02:02:11.509Z,98061.14
2019-01-29T02:04:38.271Z,98069.58
2019-01-29T02:07:07.247Z,98066.75
2019-01-29T02:09:34.137Z,98062.05
2019-01-29T02:12:00.875Z,98063.71
2019-01-29T02:14:27.633Z,98063.47
2019-01-29T02:16:54.328Z,98064.97
2019-01-29T02:19:21.061Z,98075.45
2019-01-29T02:21:47.900Z,98070.47
2019-01-29T02:24:14.667Z,98065.72
2019-01-29T02:26:41.383Z,98070.13
2019-01-29T02:29:10.106Z,98069.62
2019-01-29T02:31:36.852Z,98066.20
2019-01-29T02:34:03.679Z,98057.09
2019-01-29T02:36:32.483Z,98075.14
2019-01-29T02:38:59.238Z,98062.89
2019-01-29T02:41:25.945Z,98066.05
2019-01-29T02:43:52.723Z,98060.09
2019-01-29T02:46:19.464Z,98057.74
2019-01-29T02:52:15.939Z,98064.70
2019-01-29T02:54:42.798Z,98066.84
2019-01-29T02:57:12.473Z,98062.94
2019-01-29T02:59:39.656Z,98060.04
2019-01-29T03:02:06.442Z,98060.33
2019-01-29T03:04:33.216Z,98060.80
2019-01-29T03:06:59.935Z,98060.64
2019-01-29T03:09:26.633Z,98062.78
2019-01-29T03:11:53.451Z,98069.44
2019-01-29T03:14:20.278Z,98066.94
2019-01-29T03:16:46.989Z,98062.64
2019-01-29T03:19:13.721Z,98076.34
2019-01-29T03:21:40.494Z,98072.30
2019-01-29T03:24:07.211Z,98081.64
2019-01-29T03:26:33.937Z,98104.80
2019-01-29T03:29:00.677Z,98091.52
2019-01-29T03:31:27.401Z,98088.91
2019-01-29T03:33:54.126Z,98087.09
2019-01-29T03:36:20.853Z,98093.72
2019-01-29T03:38:47.563Z,98089.13
2019-01-29T03:41:14.282Z,98100.88
2019-01-29T03:43:41.004Z,98100.84
2019-01-29T03:46:08.070Z,98095.93
2019-01-29T03:48:34.769Z,98112.38
2019-01-29T03:51:01.517Z,98111.63
2019-01-29T03:53:37.817Z,98109.44
2019-01-29T03:55:59.391Z,98114.56
2019-01-29T03:58:26.124Z,98109.73
2019-01-29T04:00:52.882Z,98112.74
2019-01-29T04:03:21.576Z,98112.09
2019-01-29T04:05:48.314Z,98111.91
2019-01-29T04:08:16.527Z,98103.24
2019-01-29T04:10:43.199Z,98105.30
2019-01-29T04:13:09.909Z,98107.05
2019-01-29T04:15:36.920Z,98105.80
2019-01-29T04:18:03.656Z,98105.85
2019-01-29T04:20:30.738Z,98110.46
2019-01-29T04:22:57.502Z,98121.89
2019-01-29T04:25:24.232Z,98117.94
2019-01-29T04:27:50.969Z,98126.04
2019-01-29T04:30:19.258Z,98118.80
2019-01-29T04:32:45.956Z,98114.58
2019-01-29T04:35:13.992Z,98120.34
2019-01-29T04:37:40.717Z,98121.45
2019-01-29T04:40:09.406Z,98113.27
2019-01-29T04:42:36.195Z,98117.39
2019-01-29T04:45:04.347Z,98124.27
2019-01-29T04:47:31.191Z,98123.77
2019-01-29T04:49:58.023Z,98127.64
2019-01-29T04:52:24.765Z,98133.34
2019-01-29T04:54:51.488Z,98127.83
2019-01-29T04:57:18.242Z,98120.75
2019-01-29T04:59:45.010Z,98127.42
2019-01-29T05:02:11.731Z,98128.09
2019-01-29T05:04:38.455Z,98116.52
2019-01-29T05:07:05.229Z,98109.34
2019-01-29T05:09:31.948Z,98117.94
2019-01-29T05:11:58.683Z,98117.94
2019-01-29T05:14:25.783Z,98112.80
2019-01-29T05:16:52.780Z,98114.28
2019-01-29T05:19:20.451Z,98114.28
2019-01-29T05:21:47.211Z,98118.02
2019-01-29T05:24:13.967Z,98119.23
2019-01-29T05:26:40.801Z,98117.27
2019-01-29T05:29:07.543Z,98113.36
2019-01-29T05:31:34.310Z,98124.21
2019-01-29T05:34:01.138Z,98125.97
2019-01-29T05:36:27.891Z,98122.30
2019-01-29T05:38:54.911Z,98127.14
2019-01-29T05:41:21.656Z,98117.91
2019-01-29T05:43:48.363Z,98125.73
2019-01-29T05:46:15.118Z,98127.03
2019-01-29T05:48:41.841Z,98127.41
2019-01-29T05:51:08.886Z,98121.59
2019-01-29T05:53:35.964Z,98129.34
2019-01-29T05:56:02.726Z,98121.62
2019-01-29T05:58:29.437Z,98129.20
2019-01-29T06:00:56.211Z,98125.35
2019-01-29T06:03:22.955Z,98126.36
2019-01-29T06:05:49.969Z,98116.47
2019-01-29T06:08:17.205Z,98120.59
2019-01-29T06:10:46.061Z,98121.52
2019-01-29T06:13:12.746Z,98123.00
2019-01-29T06:15:39.465Z,98117.66
2019-01-29T06:18:06.279Z,98133.75
2019-01-29T06:20:33.002Z,98127.27
2019-01-29T06:22:59.723Z,98126.17
2019-01-29T06:25:26.484Z,98126.28
2019-01-29T06:27:53.353Z,98124.50
2019-01-29T06:30:22.551Z,98133.17
2019-01-29T06:32:49.309Z,98132.48
2019-01-29T06:35:16.949Z,98131.88
2019-01-29T06:37:43.697Z,98133.66
2019-01-29T06:40:12.761Z,98137.44
2019-01-29T06:42:39.755Z,98132.00
2019-01-29T06:45:09.214Z,98130.09
2019-01-29T06:47:36.035Z,98129.80
2019-01-29T06:50:08.271Z,98136.88
2019-01-29T06:52:35.011Z,98138.59
2019-01-29T06:55:01.753Z,98144.61
2019-01-29T06:57:28.491Z,98146.16
2019-01-29T06:59:55.261Z,98138.84
2019-01-29T07:02:22.045Z,98142.59
2019-01-29T07:04:49.089Z,98144.86
2019-01-29T07:07:16.132Z,98157.05
2019-01-29T07:09:42.923Z,98154.73
2019-01-29T07:12:09.809Z,98147.53
2019-01-29T07:14:38.690Z,98146.33
2019-01-29T07:17:34.119Z,98149.26
2019-01-29T07:20:04.331Z,98140.37
2019-01-29T07:22:31.238Z,98146.04
2019-01-29T07:24:57.947Z,98140.17
2019-01-29T07:27:24.858Z,98147.59
2019-01-29T07:29:51.889Z,98153.86
2019-01-29T07:32:18.737Z,98147.95
2019-01-29T07:34:45.455Z,98143.57
2019-01-29T07:37:21.765Z,98146.98
2019-01-29T07:39:45.175Z,98145.73
2019-01-29T07:42:12.325Z,98148.55
2019-01-29T07:44:39.385Z,98152.57
2019-01-29T07:47:08.036Z,98142.91
2019-01-29T07:49:35.243Z,98151.59
2019-01-29T07:52:01.971Z,98151.41
2019-01-29T07:54:33.379Z,98145.05
2019-01-29T07:56:59.535Z,98154.24
2019-01-29T07:59:33.124Z,98149.39
2019-01-29T08:01:57.543Z,98150.61
2019-01-29T08:04:24.393Z,98155.19
2019-01-29T08:06:51.132Z,98152.02
2019-01-29T08:09:18.319Z,98155.19
2019-01-29T08:11:45.345Z,98152.81
2019-01-29T08:14:12.140Z,98155.08
2019-01-29T08:16:38.982Z,98161.41
2019-01-29T08:19:06.041Z,98146.52
2019-01-29T08:21:32.979Z,98179.73
2019-01-29T08:23:59.785Z,98155.35
2019-01-29T08:26:26.951Z,98155.41
2019-01-29T08:28:53.772Z,98154.44
2019-01-29T08:31:20.782Z,98143.80
2019-01-29T08:33:47.760Z,98159.80
2019-01-29T08:36:14.855Z,98146.88
2019-01-29T08:38:42.844Z,98139.64
2019-01-29T08:41:12.344Z,98139.59
2019-01-29T08:43:39.058Z,98137.14
2019-01-29T08:46:05.871Z,98138.89
2019-01-29T08:48:32.732Z,98134.52
2019-01-29T08:50:59.677Z,98134.53
2019-01-29T08:53:29.204Z,98137.28
2019-01-29T08:55:56.282Z,98133.52
2019-01-29T08:58:27.275Z,98137.64
2019-01-29T09:00:51.720Z,98140.25
2019-01-29T09:03:18.585Z,98139.19
2019-01-29T09:05:48.248Z,98140.38
2019-01-29T09:08:14.998Z,98140.38
2019-01-29T09:10:41.718Z,98142.30
2019-01-29T09:13:08.540Z,98138.38
2019-01-29T09:15:35.228Z,98141.29
2019-01-29T09:18:04.246Z,98131.31
2019-01-29T09:20:30.972Z,98129.76
2019-01-29T09:22:57.879Z,98122.66
2019-01-29T09:25:24.785Z,98130.17
2019-01-29T09:27:51.582Z,98124.95
2019-01-29T09:30:20.535Z,98130.98
2019-01-29T09:32:47.348Z,98131.50
2019-01-29T09:35:14.233Z,98141.14
2019-01-29T09:37:41.093Z,98121.49
2019-01-29T09:40:14.768Z,98122.55
2019-01-29T09:42:41.801Z,98120.06
2019-01-29T09:45:13.334Z,98123.05
2019-01-29T09:47:40.220Z,98121.33
2019-01-29T09:50:08.222Z,98117.50
2019-01-29T09:52:35.226Z,98123.02
2019-01-29T09:55:02.572Z,98119.92
2019-01-29T09:57:29.313Z,98126.30
2019-01-29T09:59:56.106Z,98123.86
2019-01-29T10:02:23.351Z,98122.12
2019-01-29T10:04:50.136Z,98116.91
2019-01-29T10:07:16.852Z,98118.22
2019-01-29T10:09:43.758Z,98110.25
2019-01-29T10:12:12.811Z,98117.75
2019-01-29T10:14:39.586Z,98106.91
2019-01-29T10:17:06.431Z,98106.91
2019-01-29T10:19:33.151Z,98103.80
2019-01-29T10:21:59.939Z,98104.05
2019-01-29T10:24:26.885Z,98098.66
2019-01-29T10:26:55.517Z,98093.93
2019-01-29T10:29:24.112Z,98093.93
2019-01-29T10:31:50.884Z,98073.59
2019-01-29T10:34:17.626Z,98073.59
2019-01-29T10:36:44.401Z,98074.44
2019-01-29T10:39:13.277Z,98074.44
2019-01-29T10:41:40.106Z,98068.08
2019-01-29T10:44:06.904Z,98063.80
2019-01-29T10:46:34.074Z,98061.80
2019-01-29T10:49:01.491Z,98060.94
2019-01-29T10:51:28.307Z,98043.30
2019-01-29T10:53:55.330Z,98033.03
2019-01-29T10:56:22.187Z,98033.03
2019-01-29T10:58:49.148Z,98019.98
2019-01-29T11:01:15.915Z,98026.40
2019-01-29T11:03:43.038Z,98019.57
2019-01-29T11:06:09.967Z,98001.97
2019-01-29T11:08:37.141Z,98010.96
2019-01-29T11:11:04.140Z,97999.79
2019-01-29T11:13:33.630Z,97999.79
2019-01-29T11:16:00.746Z,97989.97
2019-01-29T11:18:27.592Z,98000.19
2019-01-29T11:20:54.451Z,97983.84
2019-01-29T11:23:21.253Z,97978.45
2019-01-29T11:25:56.139Z,97978.45
2019-01-29T11:28:19.861Z,97972.87
2019-01-29T11:30:46.822Z,97957.06
2019-01-29T11:33:13.600Z,97956.18
2019-01-29T11:35:40.689Z,97956.18
2019-01-29T11:38:07.955Z,97954.57
2019-01-29T11:40:35.568Z,97943.98
2019-01-29T11:43:02.402Z,97946.72
2019-01-29T11:45:32.774Z,97943.56
2019-01-29T11:47:59.469Z,97943.56
2019-01-29T11:50:26.301Z,97937.39
2019-01-29T11:52:53.117Z,97933.86
2019-01-29T11:55:20.276Z,97933.86
2019-01-29T11:57:47.149Z,97910.84
2019-01-29T12:00:20.362Z,97921.70
2019-01-29T12:02:47.680Z,97921.70
2019-01-29T12:05:18.763Z,97925.03
2019-01-29T12:07:45.589Z,97916.88
2019-01-29T12:10:12.740Z,97893.05
2019-01-29T12:12:41.201Z,97902.33
2019-01-29T12:15:09.451Z,97898.65
2019-01-29T12:17:36.639Z,97898.65
2019-01-29T12:20:04.385Z,97898.16
2019-01-29T12:22:31.111Z,97894.92
2019-01-29T12:24:57.954Z,97889.42
2019-01-29T12:27:25.592Z,97889.42
2019-01-29T12:29:52.573Z,97886.64
2019-01-29T12:32:23.862Z,97888.26
2019-01-29T12:34:51.120Z,97876.02
2019-01-29T12:37:17.855Z,97877.06
2019-01-29T12:39:44.573Z,97870.02
2019-01-29T12:42:11.737Z,97870.02
2019-01-29T12:44:39.682Z,97856.14
2019-01-29T12:47:06.484Z,97850.66
2019-01-29T12:49:33.280Z,97843.63
2019-01-29T12:52:21.919Z,97837.09
2019-01-29T12:54:48.862Z,97835.48
2019-01-29T12:57:15.974Z,97830.77
2019-01-29T12:59:42.853Z,97826.30
2019-01-29T13:02:09.555Z,97835.25
2019-01-29T13:04:36.506Z,97835.25
2019-01-29T13:07:03.248Z,97830.03
2019-01-29T13:09:30.642Z,97821.40
2019-01-29T13:11:57.381Z,97807.27
2019-01-29T13:14:24.222Z,97806.98
2019-01-29T13:16:51.342Z,97809.82
2019-01-29T13:19:18.079Z,97809.82
2019-01-29T13:21:45.151Z,97801.69
2019-01-29T13:24:11.900Z,97801.17
2019-01-29T13:26:39.439Z,97750.58
2019-01-29T13:29:06.188Z,97800.38
2019-01-29T13:31:32.981Z,97793.53
2019-01-29T13:33:59.711Z,97788.56
2019-01-29T13:36:26.802Z,97789.11
2019-01-29T13:38:56.615Z,97775.22
2019-01-29T13:41:30.119Z,97775.22
2019-01-29T13:43:56.971Z,97769.75
2019-01-29T13:46:23.715Z,97772.95
2019-01-29T13:48:51.008Z,97762.96
2019-01-29T13:51:18.587Z,97764.78
2019-01-29T13:53:48.110Z,97748.27
2019-01-29T13:56:14.846Z,97745.68
2019-01-29T13:58:41.884Z,97741.49
2019-01-29T14:01:09.170Z,97741.23
2019-01-29T14:03:38.875Z,97716.84
2019-01-29T14:06:06.090Z,97716.84
2019-01-29T14:08:33.096Z,97727.07
2019-01-29T14:11:01.746Z,97722.33
2019-01-29T14:13:28.867Z,97714.73
2019-01-29T14:15:57.909Z,97709.71
2019-01-29T14:18:27.318Z,97704.47
2019-01-29T14:20:54.166Z,97701.80
2019-01-29T14:23:21.052Z,97705.28
2019-01-29T14:25:47.848Z,97692.47
2019-01-29T14:28:14.635Z,97692.47
2019-01-29T14:30:41.521Z,97691.16
2019-01-29T14:33:11.730Z,97694.56
2019-01-29T14:35:40.562Z,97677.00
2019-01-29T14:38:58.440Z,97677.00
2019-01-29T14:41:25.196Z,97678.30
2019-01-29T14:43:59.063Z,97679.11
2019-01-29T14:46:25.973Z,97676.48
2019-01-29T14:48:53.156Z,97669.92
2019-01-29T14:51:20.653Z,97669.92
2019-01-29T14:53:47.722Z,97659.20
2019-01-29T14:56:15.051Z,97655.77
2019-01-29T14:58:41.898Z,97645.28
2019-01-29T15:01:08.791Z,97645.28
2019-01-29T15:03:35.867Z,97648.72
2019-01-29T15:06:05.701Z,97648.97
2019-01-29T15:08:32.456Z,97641.92
2019-01-29T15:11:00.295Z,97641.92
2019-01-29T15:13:33.976Z,97630.91
2019-01-29T15:16:26.371Z,97634.83
2019-01-29T15:18:57.708Z,97623.05
2019-01-29T15:21:24.590Z,97626.97
2019-01-29T15:23:51.456Z,97626.97
2019-01-29T15:26:18.189Z,97620.43
2019-01-29T15:28:49.224Z,97617.29
2019-01-29T15:31:21.797Z,97607.31
2019-01-29T15:33:48.688Z,97606.53
2019-01-29T15:36:16.794Z,97597.66
2019-01-29T15:38:44.244Z,97597.66
2019-01-29T15:41:11.040Z,97598.16
2019-01-29T15:43:38.028Z,97599.73
2019-01-29T15:46:06.121Z,97599.73
2019-01-29T15:48:33.190Z,97582.42
2019-01-29T15:50:59.921Z,97582.42
2019-01-29T15:53:26.648Z,97591.88
2019-01-29T15:55:53.576Z,97577.19
2019-01-29T15:58:20.429Z,97577.97
2019-01-29T16:00:50.550Z,97563.55
2019-01-29T16:03:17.340Z,97563.55
2019-01-29T16:05:44.103Z,97564.84
2019-01-29T16:08:10.982Z,97553.34
2019-01-29T16:10:39.725Z,97549.67
2019-01-29T16:13:07.060Z,97553.59
2019-01-29T16:15:34.126Z,97553.59
2019-01-29T16:18:00.791Z,97546.79
2019-01-29T16:20:27.522Z,97531.36
2019-01-29T16:22:56.900Z,97533.46
2019-01-29T16:25:24.522Z,97524.56
2019-01-29T16:27:51.347Z,97514.89
2019-01-29T16:30:20.448Z,97514.89
2019-01-29T16:32:47.478Z,97515.41
2019-01-29T16:35:16.455Z,97502.05
2019-01-29T16:37:43.263Z,97502.05
2019-01-29T16:40:11.090Z,97499.96
2019-01-29T16:42:37.972Z,97488.18
2019-01-29T16:45:05.214Z,97483.48
2019-01-29T16:47:32.048Z,97492.09
2019-01-29T16:49:58.812Z,97493.39
2019-01-29T16:52:25.569Z,97486.34
2019-01-29T16:54:52.363Z,97486.07
2019-01-29T16:57:19.244Z,97486.07
2019-01-29T16:59:46.177Z,97483.47
2019-01-29T17:02:13.049Z,97467.22
2019-01-29T17:04:39.939Z,97467.22
2019-01-29T17:07:06.708Z,97474.02
2019-01-29T17:09:33.569Z,97475.28
2019-01-29T17:12:00.459Z,97454.13
2019-01-29T17:14:27.233Z,97454.13
2019-01-29T17:16:54.021Z,97444.17
2019-01-29T17:19:20.962Z,97443.35
2019-01-29T17:21:47.843Z,97440.22
2019-01-29T17:24:14.726Z,97437.11
2019-01-29T17:27:07.602Z,97437.11
2019-01-29T17:29:36.266Z,97445.19
2019-01-29T17:32:02.991Z,97431.05
2019-01-29T17:34:30.053Z,97417.18
2019-01-29T17:36:58.832Z,97417.18
2019-01-29T17:39:25.586Z,97418.21
2019-01-29T17:41:52.582Z,97418.91
2019-01-29T17:44:19.330Z,97402.17
2019-01-29T17:46:46.204Z,97414.70
2019-01-29T17:49:13.056Z,97414.70
2019-01-29T17:51:39.763Z,97405.27
2019-01-29T17:54:07.659Z,97406.05
2019-01-29T17:56:36.963Z,97406.05
2019-01-29T17:59:03.796Z,97394.56
2019-01-29T18:01:30.761Z,97397.11
2019-01-29T18:03:57.730Z,97388.21
2019-01-29T18:06:24.527Z,97388.21
2019-01-29T18:08:52.003Z,97387.48
2019-01-29T18:11:18.784Z,97383.00
2019-01-29T18:13:46.278Z,97359.75
2019-01-29T18:16:15.146Z,97361.31
2019-01-29T18:18:42.597Z,97361.31
2019-01-29T18:21:09.463Z,97346.65
2019-01-29T18:23:36.209Z,97346.65
2019-01-29T18:26:03.147Z,97341.92
2019-01-29T18:28:30.118Z,97340.05
2019-01-29T18:30:57.028Z,97341.63
2019-01-29T18:33:23.881Z,97330.12
2019-01-29T18:35:50.744Z,97322.76
2019-01-29T18:38:17.521Z,97322.76
2019-01-29T18:40:48.192Z,97317.72
2019-01-29T18:43:15.066Z,97317.72
2019-01-29T18:45:43.993Z,97309.56
2019-01-29T18:48:11.257Z,97309.56
2019-01-29T18:50:38.067Z,97315.64
2019-01-29T18:53:04.969Z,97309.41
2019-01-29T18:55:31.809Z,97298.73
2019-01-29T18:58:11.231Z,97293.02
2019-01-29T19:00:29.715Z,97297.69
2019-01-29T19:02:57.111Z,97296.91
2019-01-29T19:05:24.113Z,97292.79
2019-01-29T19:07:50.938Z,97284.41
2019-01-29T19:10:18.374Z,97280.50
2019-01-29T19:12:45.269Z,97280.50
2019-01-29T19:15:17.296Z,97274.76
2019-01-29T19:17:44.514Z,97276.05
2019-01-29T19:20:12.215Z,97262.73
2019-01-29T19:22:39.222Z,97260.66
2019-01-29T19:25:07.946Z,97258.27
2019-01-29T19:27:34.819Z,97254.36
2019-01-29T19:30:01.653Z,97240.56
2019-01-29T19:32:28.431Z,97249.39
2019-01-29T19:34:55.445Z,97247.45
2019-01-29T19:37:24.551Z,97244.31
2019-01-29T19:39:51.365Z,97230.97
2019-01-29T19:42:27.339Z,97230.97
2019-01-29T19:44:50.384Z,97232.78
2019-01-29T19:47:17.168Z,97233.81
2019-01-29T19:49:44.077Z,97238.52
2019-01-29T19:52:10.785Z,97229.91
2019-01-29T19:54:37.819Z,97233.55
2019-01-29T19:57:05.093Z,97228.41
2019-01-29T19:59:31.873Z,97223.73
2019-01-29T20:01:58.709Z,97225.56
2019-01-29T20:04:25.637Z,97218.56
2019-01-29T20:06:52.499Z,97224.57
2019-01-29T20:09:20.559Z,97215.97
2019-01-29T20:11:47.396Z,97223.78
2019-01-29T20:14:14.421Z,97213.05
2019-01-29T20:16:41.209Z,97213.84
2019-01-29T20:19:10.336Z,97209.91
2019-01-29T20:21:39.730Z,97207.62
2019-01-29T20:24:08.806Z,97205.30
2019-01-29T20:26:35.522Z,97202.93
2019-01-29T20:29:02.285Z,97204.16
2019-01-29T20:31:29.561Z,97187.23
2019-01-29T20:33:56.666Z,97187.23
2019-01-29T20:36:23.714Z,97193.73
2019-01-29T20:38:53.081Z,97190.36
2019-01-29T20:41:19.986Z,97183.84
2019-01-29T20:43:47.425Z,97182.30
2019-01-29T20:46:14.267Z,97182.30
2019-01-29T20:48:41.013Z,97178.39
2019-01-29T20:51:10.189Z,97172.67
2019-01-29T20:53:40.184Z,97168.21
2019-01-29T20:56:06.923Z,97165.02
2019-01-29T20:58:33.649Z,97157.76
2019-01-29T21:01:01.215Z,97145.80
2019-01-29T21:03:28.295Z,97147.38
2019-01-29T21:05:55.318Z,97136.97
2019-01-29T21:08:24.340Z,97140.88
2019-01-29T21:10:51.416Z,97139.03
2019-01-29T21:13:18.143Z,97132.75
2019-01-29T21:15:45.858Z,97132.73
2019-01-29T21:18:12.585Z,97122.30
2019-01-29T21:20:39.675Z,97113.47
2019-01-29T21:23:06.450Z,97111.39
2019-01-29T21:25:33.578Z,97097.56
2019-01-29T21:28:00.463Z,97089.70
2019-01-29T21:30:36.260Z,97085.28
2019-01-29T21:33:03.132Z,97082.68
2019-01-29T21:35:29.875Z,97072.02
2019-01-29T21:37:57.070Z,97068.36
2019-01-29T21:40:26.525Z,97066.81
2019-01-29T21:42:53.325Z,97059.52
2019-01-29T21:45:21.375Z,97059.00
2019-01-29T21:47:48.447Z,97055.61
2019-01-29T21:50:17.252Z,97050.68
2019-01-29T21:52:43.954Z,97049.63
2019-01-29T21:55:10.887Z,97037.88
2019-01-29T21:57:40.508Z,97036.59
2019-01-29T22:00:11.590Z,97037.41
2019-01-29T22:02:38.328Z,97031.43
2019-01-29T22:05:07.322Z,97036.34
2019-01-29T22:07:34.053Z,97020.98
2019-01-29T22:10:00.816Z,97025.69
2019-01-29T22:12:29.076Z,97016.84
2019-01-29T22:14:55.797Z,97012.69
2019-01-29T22:17:22.516Z,97008.48
2019-01-29T22:19:49.226Z,97001.42
2019-01-29T22:22:16.494Z,97004.53
2019-01-29T22:24:43.218Z,96985.55
2019-01-29T22:27:10.106Z,96988.44
2019-01-29T22:29:39.236Z,96992.32
2019-01-29T22:32:06.538Z,96992.58
2019-01-29T22:34:33.457Z,96989.16
2019-01-29T22:37:02.966Z,96990.44
2019-01-29T22:39:29.696Z,96967.02
2019-01-29T22:41:57.790Z,96968.84
2019-01-29T22:44:24.848Z,96956.83
2019-01-29T22:46:51.593Z,96960.52
2019-01-29T22:49:18.553Z,96951.92
2019-01-29T22:51:45.352Z,96952.98
2019-01-29T22:54:12.226Z,96933.97
2019-01-29T22:56:41.828Z,96935.80
2019-01-29T22:59:11.440Z,96935.53
2019-01-29T23:01:40.733Z,96931.11
2019-01-29T23:04:15.706Z,96925.08
2019-01-29T23:06:47.054Z,96922.19
2019-01-29T23:09:13.810Z,96918.02
2019-01-29T23:11:40.569Z,96929.68
2019-01-29T23:14:07.318Z,96908.59
2019-01-29T23:16:34.690Z,96897.66
2019-01-29T23:19:01.434Z,96900.28
2019-01-29T23:21:28.154Z,96893.50
2019-01-29T23:23:55.946Z,96892.19
2019-01-29T23:26:22.702Z,96876.08
2019-01-29T23:28:49.490Z,96879.22
2019-01-29T23:31:16.863Z,96874.01
2019-01-29T23:33:45.607Z,96867.55
2019-01-29T23:36:12.472Z,96863.16
2019-01-29T23:38:39.542Z,96865.75
2019-01-29T23:41:06.359Z,96859.21
2019-01-29T23:43:33.105Z,96855.30
2019-01-29T23:45:59.846Z,96854.77
2019-01-29T23:48:28.036Z,96852.20
2019-01-29T23:50:54.702Z,96853.51
2019-01-29T23:53:21.451Z,96841.83
2019-01-29T23:55:48.362Z,96841.03
2019-01-29T23:58:15.271Z,96836.63
